| time (UTC) | temp F | wind direction | speed MPH | gust MPH | rain 1hr in | rain 24hr in | rain mn in | humidity % | barometer mb |
| 20260508093103 | 54 | 239 | 0.0 | 2.0 | 0.02 | 0.09 | 0.09 | 89 | 1018.5 |
| 20260508092601 | 54 | 238 | 0.0 | 2.0 | 0.02 | 0.09 | 0.09 | 89 | 1018.4 |
| 20260508092343 | 54 | 238 | 1.0 | 2.0 | 0.02 | 0.09 | 0.09 | 90 | 1018.4 |
| 20260508092058 | 54 | 237 | 1.0 | 2.0 | 0.02 | 0.09 | 0.09 | 90 | 1018.3 |
| 20260508091558 | 54 | 236 | 1.0 | 2.0 | 0.03 | 0.09 | 0.09 | 90 | 1018.4 |
| 20260508091345 | 54 | 236 | 1.0 | 2.0 | 0.03 | 0.09 | 0.09 | 90 | 1018.3 |
| 20260508091056 | 54 | 235 | 1.0 | 2.0 | 0.03 | 0.09 | 0.09 | 90 | 1018.3 |
| 20260508090558 | 54 | 234 | 0.0 | 2.0 | 0.03 | 0.09 | 0.09 | 90 | 1018.3 |
| 20260508090343 | 54 | 232 | 0.0 | 1.0 | 0.03 | 0.09 | 0.09 | 90 | 1018.3 |
| 20260508090057 | 53 | 230 | 0.0 | 1.0 | 0.03 | 0.09 | 0.09 | 90 | 1018.2 |
| 20260508085558 | 54 | 226 | 0.0 | 2.0 | 0.03 | 0.09 | 0.09 | 90 | 1018.2 |
| 20260508085342 | 54 | 226 | 0.0 | 2.0 | 0.03 | 0.09 | 0.09 | 90 | 1018.2 |
| 20260508085325 | 53 | 226 | 0.0 | 2.0 | 0.03 | 0.09 | 0.09 | 90 | 1018.1 |
| 20260508084555 | 53 | 226 | 0.0 | 2.0 | 0.03 | 0.09 | 0.09 | 90 | 1018.2 |
| 20260508084343 | 53 | 226 | 0.0 | 2.0 | 0.03 | 0.09 | 0.09 | 90 | 1018.1 |
| 20260508084054 | 53 | 228 | 0.0 | 2.0 | 0.03 | 0.09 | 0.09 | 90 | 1018.1 |
| 20260508083554 | 54 | 230 | 0.0 | 2.0 | 0.02 | 0.08 | 0.08 | 90 | 1018.1 |
| 20260508083341 | 54 | 231 | 0.0 | 2.0 | 0.02 | 0.08 | 0.08 | 90 | 1018.1 |
| 20260508083054 | 53 | 231 | 0.0 | 2.0 | 0.02 | 0.07 | 0.08 | 90 | 1018.2 |
| 20260508082828 | 53 | 231 | 0.0 | 3.0 | 0.02 | 0.07 | 0.07 | 90 | 1018.0 |
| 20260508082339 | 54 | 233 | 0.0 | 3.0 | 0.02 | 0.07 | 0.07 | 89 | 1018.0 |
| 20260508082051 | 53 | 237 | 0.0 | 3.0 | 0.01 | 0.06 | 0.07 | 90 | 1018.0 |
| 20260508081552 | 53 | 241 | 1.0 | 5.0 | 0.00 | 0.06 | 0.06 | 89 | 1018.0 |
| 20260508081338 | 53 | 240 | 1.0 | 5.0 | 0.00 | 0.06 | 0.06 | 89 | 1017.9 |
| 20260508081052 | 54 | 240 | 1.0 | 5.0 | 0.00 | 0.06 | 0.06 | 89 | 1017.9 |
| 20260508080551 | 54 | 228 | 2.0 | 5.0 | 0.00 | 0.06 | 0.06 | 89 | 1017.8 |
| 20260508080337 | 54 | 227 | 2.0 | 5.0 | 0.00 | 0.06 | 0.06 | 89 | 1017.8 |
| 20260508080051 | 54 | 229 | 2.0 | 5.0 | 0.01 | 0.06 | 0.06 | 89 | 1017.7 |
| 20260508075552 | 54 | 250 | 0.0 | 3.0 | 0.01 | 0.06 | 0.06 | 88 | 1017.7 |
| 20260508075341 | 54 | 255 | 0.0 | 2.0 | 0.01 | 0.06 | 0.06 | 88 | 1017.6 |
| 20260508075052 | 54 | 257 | 0.0 | 2.0 | 0.01 | 0.06 | 0.06 | 87 | 1017.6 |
| 20260508074549 | 54 | 257 | 0.0 | 2.0 | 0.01 | 0.06 | 0.06 | 89 | 1017.6 |
| 20260508074337 | 54 | 258 | 0.0 | 2.0 | 0.01 | 0.06 | 0.06 | 89 | 1017.6 |
| 20260508074048 | 54 | 259 | 0.0 | 2.0 | 0.01 | 0.06 | 0.06 | 89 | 1017.5 |
| 20260508073547 | 54 | 259 | 0.0 | 1.0 | 0.01 | 0.06 | 0.06 | 90 | 1017.5 |
| 20260508073337 | 53 | 259 | 0.0 | 1.0 | 0.01 | 0.06 | 0.06 | 90 | 1017.6 |
| 20260508073046 | 53 | 258 | 0.0 | 1.0 | 0.01 | 0.06 | 0.06 | 90 | 1017.5 |
| 20260508072544 | 54 | 258 | 0.0 | 2.0 | 0.01 | 0.06 | 0.06 | 90 | 1017.5 |
| 20260508072337 | 53 | 258 | 0.0 | 2.0 | 0.02 | 0.06 | 0.06 | 90 | 1017.5 |
| 20260508072042 | 53 | 258 | 0.0 | 2.0 | 0.02 | 0.06 | 0.06 | 90 | 1017.5 |
| 20260508071542 | 53 | 259 | 0.0 | 2.0 | 0.02 | 0.06 | 0.06 | 91 | 1017.4 |
| 20260508071336 | 53 | 258 | 0.0 | 2.0 | 0.03 | 0.06 | 0.06 | 91 | 1017.5 |
| 20260508071041 | 53 | 258 | 0.0 | 2.0 | 0.03 | 0.06 | 0.06 | 90 | 1017.5 |
| 20260508070541 | 53 | 257 | 0.0 | 2.0 | 0.03 | 0.06 | 0.06 | 90 | 1017.4 |
| 20260508070337 | 53 | 258 | 0.0 | 1.0 | 0.03 | 0.06 | 0.06 | 90 | 1017.3 |
| 20260508070042 | 53 | 258 | 0.0 | 1.0 | 0.02 | 0.05 | 0.05 | 90 | 1017.3 |
| 20260508065542 | 53 | 259 | 0.0 | 2.0 | 0.02 | 0.05 | 0.05 | 91 | 1017.2 |
| 20260508065338 | 53 | 259 | 0.0 | 2.0 | 0.02 | 0.05 | 0.05 | 91 | 1017.3 |
| 20260508065046 | 53 | 257 | 0.0 | 2.0 | 0.02 | 0.05 | 0.05 | 90 | 1017.3 |
| 20260508064541 | 53 | 254 | 1.0 | 2.0 | 0.02 | 0.05 | 0.05 | 91 | 1017.3 |
| 20260508064338 | 53 | 253 | 1.0 | 2.0 | 0.02 | 0.05 | 0.05 | 90 | 1017.3 |
| 20260508064041 | 53 | 255 | 1.0 | 2.0 | 0.02 | 0.05 | 0.05 | 90 | 1017.3 |
| 20260508063541 | 53 | 256 | 0.0 | 1.0 | 0.02 | 0.05 | 0.05 | 90 | 1017.2 |
| 20260508063336 | 53 | 257 | 0.0 | 1.0 | 0.02 | 0.05 | 0.05 | 90 | 1017.2 |
| 20260508063041 | 53 | 255 | 0.0 | 1.0 | 0.02 | 0.05 | 0.05 | 90 | 1017.3 |
| 20260508062814 | 53 | 251 | 0.0 | 1.0 | 0.02 | 0.05 | 0.05 | 90 | 1017.3 |
| 20260508062337 | 53 | 248 | 0.0 | 1.0 | 0.02 | 0.04 | 0.04 | 90 | 1017.4 |
| 20260508062052 | 53 | 257 | 0.0 | 1.0 | 0.01 | 0.03 | 0.03 | 90 | 1017.4 |
| 20260508062045 | 53 | 247 | 0.0 | 1.0 | 0.02 | 0.04 | 0.04 | 90 | 1017.4 |
| 20260508061338 | 53 | 262 | 0.0 | 1.0 | 0.00 | 0.02 | 0.02 | 90 | 1017.4 |
| 20260508061314 | 53 | 267 | 0.0 | 1.0 | 0.00 | 0.02 | 0.02 | 90 | 1017.3 |
| 20260508060541 | 52 | 267 | 0.0 | 1.0 | 0.00 | 0.02 | 0.02 | 90 | 1017.3 |
| 20260508060336 | 52 | 267 | 0.0 | 1.0 | 0.00 | 0.02 | 0.02 | 90 | 1017.2 |
| 20260508060041 | 52 | 267 | 0.0 | 1.0 | 0.00 | 0.02 | 0.02 | 90 | 1017.2 |
| 20260508055541 | 52 | 267 | 0.0 | 0.0 | 0.00 | 0.02 | 0.02 | 90 | 1017.0 |
| 20260508055336 | 52 | 267 | 0.0 | 0.0 | 0.00 | 0.02 | 0.02 | 90 | 1016.9 |
| 20260508055040 | 52 | 267 | 0.0 | 0.0 | 0.00 | 0.02 | 0.02 | 90 | 1016.9 |
| 20260508054538 | 52 | 267 | 0.0 | 0.0 | 0.00 | 0.02 | 0.02 | 90 | 1016.9 |
| 20260508054337 | 52 | 267 | 0.0 | 0.0 | 0.00 | 0.02 | 0.02 | 90 | 1016.9 |
| 20260508054038 | 52 | 267 | 0.0 | 0.0 | 0.00 | 0.02 | 0.02 | 90 | 1016.9 |
| 20260508053541 | 52 | 267 | 0.0 | 0.0 | 0.00 | 0.02 | 0.02 | 90 | 1016.8 |
| 20260508053341 | 52 | 267 | 0.0 | 0.0 | 0.00 | 0.02 | 0.02 | 90 | 1016.8 |
| 20260508053037 | 52 | 267 | 0.0 | 0.0 | 0.00 | 0.02 | 0.02 | 90 | 1016.8 |
| 20260508052535 | 52 | 267 | 0.0 | 0.0 | 0.00 | 0.02 | 0.02 | 90 | 1016.8 |
| 20260508052335 | 52 | 267 | 0.0 | 1.0 | 0.00 | 0.02 | 0.02 | 90 | 1016.8 |
| 20260508052036 | 52 | 267 | 0.0 | 1.0 | 0.00 | 0.02 | 0.02 | 90 | 1016.7 |
| 20260508051536 | 52 | 267 | 0.0 | 1.0 | 0.00 | 0.02 | 0.02 | 90 | 1016.7 |
| 20260508051336 | 52 | 267 | 0.0 | 1.0 | 0.00 | 0.02 | 0.02 | 90 | 1016.7 |
| 20260508051036 | 52 | 267 | 0.0 | 1.0 | 0.00 | 0.02 | 0.02 | 90 | 1016.6 |
| 20260508050536 | 52 | 268 | 0.0 | 1.0 | 0.00 | 0.02 | 0.02 | 90 | 1016.7 |
| 20260508050336 | 52 | 268 | 0.0 | 0.0 | 0.00 | 0.02 | 0.02 | 90 | 1016.7 |
| 20260508050036 | 52 | 268 | 0.0 | 0.0 | 0.01 | 0.02 | 0.02 | 90 | 1016.7 |
| 20260508045535 | 52 | 268 | 0.0 | 1.0 | 0.01 | 0.02 | 0.02 | 90 | 1016.6 |
| 20260508045336 | 52 | 268 | 0.0 | 1.0 | 0.01 | 0.02 | 0.02 | 90 | 1016.6 |
| 20260508045037 | 52 | 268 | 0.0 | 1.0 | 0.01 | 0.02 | 0.02 | 90 | 1016.6 |
| 20260508044537 | 52 | 268 | 0.0 | 2.0 | 0.01 | 0.02 | 0.02 | 90 | 1016.5 |
| 20260508044333 | 52 | 268 | 0.0 | 2.0 | 0.01 | 0.02 | 0.02 | 90 | 1016.5 |
| 20260508044037 | 52 | 263 | 0.0 | 2.0 | 0.01 | 0.02 | 0.02 | 90 | 1016.7 |
| 20260508043537 | 52 | 255 | 0.0 | 2.0 | 0.02 | 0.02 | 0.02 | 90 | 1016.7 |
| 20260508043334 | 52 | 258 | 0.0 | 2.0 | 0.02 | 0.02 | 0.02 | 90 | 1016.7 |
| 20260508043036 | 52 | 295 | 0.0 | 3.0 | 0.02 | 0.02 | 0.02 | 90 | 1016.7 |
| 20260508042536 | 52 | 13 | 0.0 | 3.0 | 0.02 | 0.02 | 0.02 | 89 | 1016.5 |
| 20260508042332 | 52 | 18 | 0.0 | 4.0 | 0.02 | 0.02 | 0.02 | 89 | 1016.5 |
| 20260508042036 | 52 | 15 | 0.0 | 4.0 | 0.02 | 0.02 | 0.02 | 89 | 1016.5 |
| 20260508041545 | 52 | 10 | 1.0 | 6.0 | 0.02 | 0.02 | 0.02 | 89 | 1016.5 |
| 20260508041541 | 52 | 5 | 1.0 | 6.0 | 0.02 | 0.02 | 0.02 | 89 | 1016.5 |
| 20260508041523 | 52 | 2 | 1.0 | 6.0 | 0.02 | 0.02 | 0.02 | 89 | 1016.5 |
| 20260508040535 | 52 | 23 | 2.0 | 6.0 | 0.02 | 0.02 | 0.02 | 89 | 1016.5 |
| 20260508040332 | 52 | 25 | 2.0 | 6.0 | 0.02 | 0.02 | 0.02 | 89 | 1016.5 |
| 20260508040042 | 52 | 38 | 1.0 | 4.0 | 0.02 | 0.02 | 0.02 | 89 | 1016.4 |
| 20260508040038 | 52 | 21 | 2.0 | 6.0 | 0.02 | 0.02 | 0.02 | 89 | 1016.5 |
| 20260508035333 | 52 | 53 | 1.0 | 4.0 | 0.02 | 0.02 | 0.02 | 89 | 1016.4 |
| 20260508035035 | 52 | 57 | 1.0 | 4.0 | 0.02 | 0.02 | 0.02 | 89 | 1016.4 |
| 20260508034814 | 52 | 66 | 1.0 | 4.0 | 0.02 | 0.02 | 0.02 | 89 | 1016.3 |
| 20260508034333 | 52 | 67 | 1.0 | 4.0 | 0.02 | 0.02 | 0.02 | 89 | 1016.4 |
| 20260508034036 | 52 | 79 | 1.0 | 4.0 | 0.02 | 0.02 | 0.02 | 88 | 1016.6 |
| 20260508033813 | 53 | 79 | 1.0 | 4.0 | 0.01 | 0.01 | 0.01 | 88 | 1016.6 |
| 20260508033332 | 53 | 81 | 1.0 | 4.0 | 0.01 | 0.01 | 0.01 | 88 | 1016.6 |
| 20260508033036 | 53 | 81 | 2.0 | 4.0 | 0.00 | 0.00 | 0.00 | 88 | 1016.6 |
| 20260508032536 | 53 | 86 | 2.0 | 4.0 | 0.00 | 0.00 | 0.00 | 87 | 1016.6 |
| 20260508032332 | 53 | 85 | 2.0 | 4.0 | 0.00 | 0.00 | 0.00 | 87 | 1016.4 |
| 20260508032035 | 53 | 80 | 1.0 | 4.0 | 0.00 | 0.00 | 0.00 | 87 | 1016.4 |
| 20260508031809 | 53 | 75 | 1.0 | 4.0 | 0.00 | 0.00 | 0.00 | 86 | 1016.4 |
| 20260508031332 | 53 | 71 | 1.0 | 4.0 | 0.00 | 0.00 | 0.00 | 86 | 1016.4 |
| 20260508031036 | 53 | 74 | 2.0 | 4.0 | 0.00 | 0.00 | 0.00 | 87 | 1016.3 |
| 20260508030811 | 53 | 54 | 1.0 | 4.0 | 0.00 | 0.00 | 0.00 | 86 | 1016.3 |
| 20260508030337 | 53 | 31 | 1.0 | 4.0 | 0.00 | 0.00 | 0.00 | 86 | 1016.3 |
| 20260508030036 | 53 | 349 | 0.0 | 3.0 | 0.00 | 0.00 | 0.00 | 87 | 1016.2 |
| 20260508025536 | 53 | 327 | 0.0 | 1.0 | 0.00 | 0.00 | 0.00 | 87 | 1016.1 |
| 20260508025333 | 53 | 327 | 0.0 | 1.0 | 0.00 | 0.00 | 0.00 | 87 | 1016.1 |
| 20260508025036 | 53 | 327 | 0.0 | 1.0 | 0.00 | 0.00 | 0.00 | 87 | 1016.1 |
| 20260508024808 | 53 | 327 | 0.0 | 1.0 | 0.00 | 0.00 | 0.00 | 87 | 1015.9 |
| 20260508024332 | 53 | 326 | 0.0 | 1.0 | 0.00 | 0.00 | 0.00 | 86 | 1015.9 |
| 20260508024307 | 53 | 311 | 0.0 | 1.0 | 0.00 | 0.00 | 0.00 | 86 | 1015.9 |
| 20260508023536 | 54 | 271 | 0.0 | 1.0 | 0.00 | 0.00 | 0.00 | 86 | 1015.9 |
| 20260508023332 | 54 | 258 | 0.0 | 1.0 | 0.00 | 0.00 | 0.00 | 86 | 1015.9 |
| 20260508023036 | 54 | 256 | 0.0 | 1.0 | 0.00 | 0.00 | 0.00 | 86 | 1015.9 |
| 20260508022536 | 54 | 258 | 0.0 | 1.0 | 0.00 | 0.00 | 0.00 | 86 | 1015.9 |
| 20260508022333 | 54 | 258 | 0.0 | 1.0 | 0.00 | 0.00 | 0.00 | 86 | 1015.9 |
| 20260508022038 | 54 | 258 | 0.0 | 0.0 | 0.00 | 0.00 | 0.00 | 85 | 1016.0 |
| 20260508021536 | 54 | 258 | 0.0 | 0.0 | 0.00 | 0.00 | 0.00 | 84 | 1015.9 |
| 20260508021334 | 54 | 258 | 0.0 | 1.0 | 0.00 | 0.00 | 0.00 | 84 | 1015.9 |
| 20260508021035 | 54 | 261 | 0.0 | 1.0 | 0.00 | 0.00 | 0.00 | 84 | 1015.8 |
| 20260508020551 | 55 | 275 | 0.0 | 1.0 | 0.00 | 0.00 | 0.00 | 83 | 1016.0 |
| 20260508020332 | 54 | 281 | 0.0 | 1.0 | 0.00 | 0.00 | 0.00 | 84 | 1015.9 |
| 20260508020036 | 54 | 286 | 0.0 | 1.0 | 0.00 | 0.00 | 0.00 | 83 | 1015.9 |
| 20260508015536 | 54 | 286 | 0.0 | 1.0 | 0.00 | 0.00 | 0.00 | 83 | 1015.9 |
| 20260508015332 | 54 | 286 | 0.0 | 1.0 | 0.00 | 0.00 | 0.00 | 84 | 1016.1 |
| 20260508015035 | 54 | 286 | 0.0 | 1.0 | 0.00 | 0.00 | 0.00 | 84 | 1016.0 |
| 20260508014537 | 54 | 286 | 0.0 | 1.0 | 0.00 | 0.00 | 0.00 | 83 | 1016.0 |
| 20260508014332 | 54 | 286 | 0.0 | 1.0 | 0.00 | 0.00 | 0.00 | 83 | 1015.9 |
| 20260508014036 | 55 | 287 | 0.0 | 1.0 | 0.00 | 0.00 | 0.00 | 83 | 1016.3 |
| 20260508013536 | 55 | 288 | 0.0 | 1.0 | 0.00 | 0.00 | 0.00 | 83 | 1016.4 |
| 20260508013332 | 55 | 289 | 0.0 | 1.0 | 0.00 | 0.00 | 0.00 | 82 | 1016.4 |
| 20260508013036 | 55 | 289 | 0.0 | 1.0 | 0.00 | 0.00 | 0.00 | 82 | 1016.4 |
| 20260508012536 | 55 | 287 | 0.0 | 1.0 | 0.00 | 0.00 | 0.00 | 82 | 1016.4 |
| 20260508012332 | 54 | 283 | 0.0 | 1.0 | 0.00 | 0.00 | 0.00 | 82 | 1016.4 |
| 20260508012036 | 54 | 278 | 0.0 | 1.0 | 0.00 | 0.00 | 0.00 | 82 | 1016.3 |
| 20260508011810 | 54 | 272 | 0.0 | 1.0 | 0.00 | 0.00 | 0.00 | 83 | 1016.4 |
| 20260508011332 | 54 | 272 | 0.0 | 1.0 | 0.00 | 0.00 | 0.00 | 84 | 1016.4 |
| 20260508011032 | 54 | 272 | 0.0 | 1.0 | 0.00 | 0.00 | 0.00 | 84 | 1016.4 |
| 20260508010532 | 54 | 272 | 0.0 | 1.0 | 0.00 | 0.00 | 0.00 | 83 | 1016.4 |
| 20260508010332 | 55 | 273 | 0.0 | 1.0 | 0.00 | 0.00 | 0.00 | 83 | 1016.3 |
| 20260508010031 | 55 | 274 | 0.0 | 1.0 | 0.00 | 0.00 | 0.00 | 83 | 1016.4 |
| 20260508005532 | 55 | 275 | 0.0 | 0.0 | 0.00 | 0.00 | 0.00 | 82 | 1016.4 |
| 20260508005332 | 55 | 275 | 0.0 | 0.0 | 0.00 | 0.00 | 0.00 | 82 | 1016.5 |
| 20260508005032 | 55 | 275 | 0.0 | 0.0 | 0.00 | 0.00 | 0.00 | 81 | 1016.5 |
| 20260508004531 | 55 | 276 | 0.0 | 0.0 | 0.00 | 0.00 | 0.00 | 81 | 1016.5 |
| 20260508004332 | 55 | 276 | 0.0 | 0.0 | 0.00 | 0.00 | 0.00 | 80 | 1016.5 |
| 20260508004031 | 55 | 277 | 0.0 | 0.0 | 0.00 | 0.00 | 0.00 | 80 | 1017.0 |
| 20260508003535 | 55 | 278 | 0.0 | 3.0 | 0.00 | 0.00 | 0.00 | 79 | 1017.2 |
| 20260508003335 | 55 | 278 | 0.0 | 3.0 | 0.00 | 0.00 | 0.00 | 79 | 1017.2 |
| 20260508003031 | 55 | 278 | 0.0 | 3.0 | 0.00 | 0.00 | 0.00 | 78 | 1017.2 |
| 20260508002531 | 55 | 280 | 0.0 | 3.0 | 0.00 | 0.00 | 0.00 | 79 | 1017.2 |
| 20260508002332 | 55 | 285 | 1.0 | 3.0 | 0.00 | 0.00 | 0.00 | 80 | 1017.3 |
| 20260508002031 | 55 | 292 | 1.0 | 3.0 | 0.00 | 0.00 | 0.00 | 79 | 1017.0 |
| 20260508001533 | 55 | 331 | 0.0 | 1.0 | 0.00 | 0.00 | 0.00 | 80 | 1017.4 |
| 20260508001332 | 55 | 350 | 0.0 | 1.0 | 0.00 | 0.00 | 0.00 | 80 | 1017.4 |
| 20260508001028 | 55 | 16 | 0.0 | 1.0 | 0.00 | 0.00 | 0.00 | 80 | 1017.3 |
| 20260508000528 | 56 | 22 | 0.0 | 1.0 | 0.00 | 0.00 | 0.00 | 79 | 1017.2 |
| 20260508000331 | 56 | 22 | 0.0 | 1.0 | 0.00 | 0.00 | 0.00 | 79 | 1017.3 |
| 20260508000027 | 55 | 22 | 0.0 | 1.0 | 0.00 | 0.00 | 0.00 | 78 | 1017.4 |
| 20260507235526 | 55 | 22 | 0.0 | 0.0 | 0.00 | 0.00 | 0.00 | 78 | 1017.4 |
| 20260507235333 | 56 | 22 | 0.0 | 0.0 | 0.00 | 0.00 | 0.00 | 78 | 1017.4 |
| 20260507235026 | 56 | 22 | 0.0 | 0.0 | 0.00 | 0.00 | 0.00 | 79 | 1017.4 |
| 20260507234756 | 56 | 22 | 0.0 | 0.0 | 0.00 | 0.00 | 0.00 | 78 | 1017.4 |
| 20260507234332 | 56 | 22 | 0.0 | 0.0 | 0.00 | 0.00 | 0.00 | 78 | 1017.5 |
| 20260507234026 | 56 | 22 | 0.0 | 0.0 | 0.00 | 0.00 | 0.00 | 78 | 1017.5 |
| 20260507233525 | 56 | 22 | 0.0 | 0.0 | 0.00 | 0.00 | 0.00 | 77 | 1017.5 |
| 20260507233332 | 56 | 22 | 0.0 | 0.0 | 0.00 | 0.00 | 0.00 | 77 | 1017.6 |
| 20260507233026 | 56 | 22 | 0.0 | 0.0 | 0.00 | 0.00 | 0.00 | 78 | 1017.5 |
| 20260507232525 | 56 | 22 | 0.0 | 0.0 | 0.00 | 0.00 | 0.00 | 77 | 1017.5 |
| 20260507232333 | 56 | 22 | 0.0 | 0.0 | 0.00 | 0.00 | 0.00 | 77 | 1017.5 |
| 20260507232025 | 56 | 22 | 0.0 | 1.0 | 0.00 | 0.00 | 0.00 | 77 | 1017.6 |
| 20260507231526 | 56 | 22 | 0.0 | 1.0 | 0.00 | 0.00 | 0.00 | 77 | 1017.5 |
| 20260507231332 | 56 | 22 | 0.0 | 1.0 | 0.00 | 0.00 | 0.00 | 77 | 1017.5 |
| 20260507231022 | 56 | 24 | 0.0 | 1.0 | 0.00 | 0.00 | 0.00 | 77 | 1017.5 |
| 20260507230750 | 56 | 30 | 0.0 | 1.0 | 0.00 | 0.00 | 0.00 | 77 | 1017.5 |
| 20260507230334 | 56 | 33 | 0.0 | 1.0 | 0.00 | 0.00 | 0.00 | 77 | 1017.5 |
| 20260507230022 | 56 | 36 | 0.0 | 0.0 | 0.00 | 0.00 | 0.00 | 77 | 1017.5 |
| 20260507225518 | 56 | 39 | 0.0 | 0.0 | 0.00 | 0.00 | 0.00 | 77 | 1017.5 |
| 20260507225334 | 56 | 39 | 0.0 | 0.0 | 0.00 | 0.00 | 0.00 | 77 | 1017.5 |
| 20260507225017 | 56 | 39 | 0.0 | 0.0 | 0.00 | 0.00 | 0.00 | 76 | 1017.5 |
| 20260507224517 | 56 | 39 | 0.0 | 0.0 | 0.00 | 0.00 | 0.00 | 76 | 1017.5 |
| 20260507224332 | 56 | 39 | 0.0 | 0.0 | 0.00 | 0.00 | 0.00 | 76 | 1017.6 |
| 20260507224018 | 56 | 39 | 0.0 | 1.0 | 0.00 | 0.00 | 0.00 | 76 | 1017.5 |
| 20260507223517 | 56 | 39 | 0.0 | 1.0 | 0.00 | 0.00 | 0.00 | 76 | 1017.4 |
| 20260507223332 | 56 | 39 | 0.0 | 1.0 | 0.00 | 0.00 | 0.00 | 76 | 1017.4 |
| 20260507223014 | 56 | 39 | 0.0 | 1.0 | 0.00 | 0.00 | 0.00 | 75 | 1017.4 |
| 20260507222512 | 56 | 39 | 0.0 | 1.0 | 0.00 | 0.00 | 0.00 | 75 | 1017.4 |
| 20260507222331 | 56 | 39 | 0.0 | 1.0 | 0.00 | 0.00 | 0.00 | 76 | 1017.4 |
| 20260507222011 | 56 | 38 | 0.0 | 1.0 | 0.00 | 0.00 | 0.00 | 75 | 1017.4 |
| 20260507221513 | 56 | 27 | 0.0 | 1.0 | 0.00 | 0.00 | 0.00 | 75 | 1017.4 |
| 20260507221332 | 56 | 24 | 0.0 | 1.0 | 0.00 | 0.00 | 0.00 | 75 | 1017.4 |
| 20260507221020 | 56 | 17 | 0.0 | 0.0 | 0.00 | 0.00 | 0.00 | 76 | 1017.4 |
| 20260507220511 | 56 | 16 | 0.0 | 0.0 | 0.00 | 0.00 | 0.00 | 75 | 1017.3 |
| 20260507220335 | 56 | 17 | 0.0 | 0.0 | 0.00 | 0.00 | 0.00 | 75 | 1017.3 |
| 20260507220251 | 56 | 17 | 0.0 | 1.0 | 0.00 | 0.00 | 0.00 | 75 | 1017.3 |
| 20260507215511 | 56 | 18 | 0.0 | 1.0 | 0.00 | 0.00 | 0.00 | 74 | 1017.3 |
| 20260507215333 | 56 | 18 | 0.0 | 1.0 | 0.00 | 0.00 | 0.00 | 74 | 1017.3 |
| 20260507215243 | 56 | 18 | 0.0 | 1.0 | 0.00 | 0.00 | 0.00 | 74 | 1017.2 |
| 20260507214511 | 56 | 18 | 0.0 | 1.0 | 0.00 | 0.00 | 0.00 | 74 | 1017.2 |
| 20260507214332 | 56 | 18 | 0.0 | 1.0 | 0.00 | 0.00 | 0.00 | 74 | 1017.2 |
| 20260507214011 | 56 | 18 | 0.0 | 0.0 | 0.00 | 0.00 | 0.00 | 75 | 1017.2 |
| 20260507213515 | 56 | 17 | 0.0 | 0.0 | 0.00 | 0.00 | 0.00 | 74 | 1017.2 |
| 20260507213332 | 56 | 17 | 0.0 | 0.0 | 0.00 | 0.00 | 0.00 | 74 | 1017.2 |
| 20260507213011 | 56 | 16 | 0.0 | 0.0 | 0.00 | 0.00 | 0.00 | 74 | 1017.3 |
| 20260507212513 | 57 | 17 | 0.0 | 0.0 | 0.00 | 0.00 | 0.00 | 74 | 1017.3 |
| 20260507212332 | 57 | 17 | 0.0 | 0.0 | 0.00 | 0.00 | 0.00 | 73 | 1017.4 |
| 20260507212012 | 57 | 17 | 0.0 | 0.0 | 0.00 | 0.00 | 0.00 | 73 | 1017.3 |
| 20260507211511 | 57 | 18 | 0.0 | 1.0 | 0.00 | 0.00 | 0.00 | 73 | 1017.3 |
| 20260507211332 | 57 | 18 | 0.0 | 1.0 | 0.00 | 0.00 | 0.00 | 72 | 1017.2 |
| 20260507211011 | 57 | 18 | 0.0 | 1.0 | 0.00 | 0.00 | 0.00 | 72 | 1017.2 |
| 20260507210739 | 57 | 18 | 0.0 | 1.0 | 0.00 | 0.00 | 0.00 | 72 | 1017.2 |
| 20260507210328 | 57 | 17 | 0.0 | 1.0 | 0.00 | 0.00 | 0.00 | 71 | 1017.2 |
| 20260507210248 | 57 | 17 | 0.0 | 1.0 | 0.00 | 0.00 | 0.00 | 72 | 1017.3 |
| 20260507205511 | 57 | 17 | 0.0 | 0.0 | 0.00 | 0.00 | 0.00 | 71 | 1017.2 |
| 20260507205328 | 57 | 18 | 0.0 | 0.0 | 0.00 | 0.00 | 0.00 | 71 | 1017.2 |
| 20260507205247 | 57 | 18 | 0.0 | 0.0 | 0.00 | 0.00 | 0.00 | 72 | 1017.0 |
| 20260507205006 | 57 | 18 | 0.0 | 0.0 | 0.00 | 0.00 | 0.00 | 72 | 1017.2 |
| 20260507204326 | 57 | 18 | 0.0 | 1.0 | 0.00 | 0.00 | 0.00 | 72 | 1017.0 |
| 20260507204245 | 57 | 18 | 0.0 | 1.0 | 0.00 | 0.00 | 0.00 | 72 | 1016.8 |
| 20260507203521 | 57 | 17 | 0.0 | 1.0 | 0.00 | 0.00 | 0.00 | 71 | 1016.7 |
| 20260507203513 | 57 | 18 | 0.0 | 1.0 | 0.00 | 0.00 | 0.00 | 71 | 1016.8 |
| 20260507203457 | 57 | 18 | 0.0 | 1.0 | 0.00 | 0.00 | 0.00 | 71 | 1016.8 |
| 20260507202512 | 57 | 16 | 0.0 | 3.0 | 0.00 | 0.00 | 0.00 | 70 | 1016.8 |
| 20260507202327 | 58 | 16 | 0.0 | 3.0 | 0.00 | 0.00 | 0.00 | 70 | 1016.8 |
| 20260507202015 | 58 | 16 | 0.0 | 3.0 | 0.00 | 0.00 | 0.00 | 70 | 1016.8 |
| 20260507201512 | 58 | 16 | 0.0 | 3.0 | 0.00 | 0.00 | 0.00 | 68 | 1016.6 |
| 20260507201327 | 58 | 13 | 0.0 | 3.0 | 0.00 | 0.00 | 0.00 | 68 | 1016.7 |
| 20260507201020 | 59 | 3 | 0.0 | 3.0 | 0.00 | 0.00 | 0.00 | 65 | 1016.5 |
| 20260507201016 | 59 | 6 | 0.0 | 3.0 | 0.00 | 0.00 | 0.00 | 66 | 1016.6 |
| 20260507200327 | 59 | 8 | 0.0 | 1.0 | 0.00 | 0.00 | 0.00 | 65 | 1016.5 |
| 20260507200012 | 59 | 19 | 0.0 | 1.0 | 0.00 | 0.00 | 0.00 | 65 | 1016.5 |
| 20260507195511 | 59 | 29 | 0.0 | 1.0 | 0.00 | 0.00 | 0.00 | 66 | 1016.5 |
| 20260507195328 | 59 | 28 | 0.0 | 1.0 | 0.00 | 0.00 | 0.00 | 66 | 1016.5 |
| 20260507195012 | 59 | 24 | 0.0 | 1.0 | 0.00 | 0.00 | 0.00 | 67 | 1016.6 |
| 20260507194511 | 59 | 10 | 0.0 | 1.0 | 0.00 | 0.00 | 0.00 | 66 | 1016.6 |
| 20260507194326 | 59 | 356 | 0.0 | 1.0 | 0.00 | 0.00 | 0.00 | 65 | 1016.5 |
| 20260507194011 | 59 | 329 | 0.0 | 1.0 | 0.00 | 0.00 | 0.00 | 65 | 1016.4 |
| 20260507193511 | 59 | 303 | 0.0 | 1.0 | 0.00 | 0.00 | 0.00 | 65 | 1016.1 |
| 20260507193328 | 59 | 303 | 0.0 | 1.0 | 0.00 | 0.00 | 0.00 | 65 | 1016.1 |
| 20260507193010 | 60 | 311 | 0.0 | 1.0 | 0.00 | 0.00 | 0.00 | 65 | 1016.1 |
| 20260507192744 | 60 | 336 | 0.0 | 2.0 | 0.00 | 0.00 | 0.00 | 65 | 1016.0 |
| 20260507192330 | 60 | 342 | 0.0 | 2.0 | 0.00 | 0.00 | 0.00 | 64 | 1016.0 |
| 20260507192238 | 60 | 346 | 0.0 | 2.0 | 0.00 | 0.00 | 0.00 | 65 | 1015.9 |
| 20260507191506 | 60 | 8 | 0.0 | 2.0 | 0.00 | 0.00 | 0.00 | 64 | 1016.0 |
| 20260507191327 | 60 | 31 | 0.0 | 2.0 | 0.00 | 0.00 | 0.00 | 63 | 1016.1 |
| 20260507191238 | 60 | 100 | 0.0 | 2.0 | 0.00 | 0.00 | 0.00 | 63 | 1016.1 |
| 20260507190506 | 61 | 135 | 0.0 | 4.0 | 0.00 | 0.00 | 0.00 | 62 | 1016.0 |
| 20260507190325 | 61 | 130 | 0.0 | 4.0 | 0.00 | 0.00 | 0.00 | 61 | 1016.0 |
| 20260507190237 | 61 | 126 | 0.0 | 4.0 | 0.00 | 0.00 | 0.00 | 60 | 1016.0 |
| 20260507185506 | 61 | 114 | 0.0 | 5.0 | 0.00 | 0.00 | 0.00 | 61 | 1015.9 |
| 20260507185324 | 61 | 113 | 1.0 | 5.0 | 0.00 | 0.00 | 0.00 | 60 | 1015.9 |
| 20260507185007 | 61 | 105 | 2.0 | 5.0 | 0.00 | 0.00 | 0.00 | 60 | 1015.7 |
| 20260507184741 | 61 | 96 | 2.0 | 6.0 | 0.00 | 0.00 | 0.00 | 59 | 1015.6 |
| 20260507184325 | 61 | 91 | 2.0 | 6.0 | 0.00 | 0.00 | 0.00 | 59 | 1015.6 |
| 20260507184006 | 62 | 87 | 2.0 | 6.0 | 0.00 | 0.00 | 0.00 | 59 | 1015.6 |
| 20260507183505 | 62 | 80 | 3.0 | 8.0 | 0.00 | 0.00 | 0.00 | 59 | 1015.7 |
| 20260507183323 | 62 | 76 | 3.0 | 8.0 | 0.00 | 0.00 | 0.00 | 59 | 1015.7 |
| 20260507183006 | 62 | 75 | 3.0 | 8.0 | 0.00 | 0.00 | 0.00 | 59 | 1015.6 |
| 20260507182506 | 62 | 75 | 3.0 | 8.0 | 0.00 | 0.00 | 0.00 | 59 | 1015.6 |
| 20260507182322 | 62 | 74 | 3.0 | 8.0 | 0.00 | 0.00 | 0.00 | 59 | 1015.5 |
| 20260507182006 | 62 | 70 | 3.0 | 8.0 | 0.00 | 0.00 | 0.00 | 59 | 1015.3 |
| 20260507181506 | 62 | 58 | 3.0 | 8.0 | 0.00 | 0.00 | 0.00 | 59 | 1015.2 |
| 20260507181322 | 62 | 58 | 3.0 | 8.0 | 0.00 | 0.00 | 0.00 | 59 | 1015.1 |
| 20260507181006 | 62 | 59 | 4.0 | 8.0 | 0.00 | 0.00 | 0.00 | 58 | 1015.1 |
| 20260507180518 | 62 | 29 | 3.0 | 8.0 | 0.00 | 0.00 | 0.00 | 58 | 1015.0 |
| 20260507180511 | 62 | 53 | 3.0 | 8.0 | 0.00 | 0.00 | 0.00 | 58 | 1015.1 |
| 20260507180455 | 62 | 47 | 3.0 | 8.0 | 0.00 | 0.00 | 0.00 | 58 | 1015.1 |
| 20260507175736 | 62 | 24 | 3.0 | 8.0 | 0.00 | 0.00 | 0.00 | 58 | 1014.9 |
| 20260507175321 | 62 | 21 | 4.0 | 8.0 | 0.00 | 0.00 | 0.00 | 58 | 1015.0 |
| 20260507175007 | 62 | 25 | 4.0 | 11.0 | 0.00 | 0.00 | 0.00 | 58 | 1014.9 |
| 20260507174507 | 62 | 22 | 4.0 | 11.0 | 0.00 | 0.00 | 0.00 | 57 | 1014.9 |
| 20260507174321 | 62 | 24 | 4.0 | 11.0 | 0.00 | 0.00 | 0.00 | 57 | 1014.9 |
| 20260507174007 | 62 | 33 | 4.0 | 11.0 | 0.00 | 0.00 | 0.00 | 57 | 1014.9 |
| 20260507173505 | 63 | 61 | 2.0 | 11.0 | 0.00 | 0.00 | 0.00 | 56 | 1015.0 |
| 20260507173319 | 63 | 76 | 2.0 | 11.0 | 0.00 | 0.00 | 0.00 | 57 | 1014.9 |
| 20260507173011 | 63 | 83 | 2.0 | 5.0 | 0.00 | 0.00 | 0.00 | 57 | 1014.8 |
| 20260507173006 | 63 | 90 | 2.0 | 5.0 | 0.00 | 0.00 | 0.00 | 57 | 1014.8 |
| 20260507172319 | 63 | 94 | 2.0 | 7.0 | 0.00 | 0.00 | 0.00 | 56 | 1014.8 |
| 20260507172005 | 64 | 115 | 2.0 | 7.0 | 0.00 | 0.00 | 0.00 | 56 | 1014.8 |
| 20260507171736 | 64 | 124 | 2.0 | 8.0 | 0.00 | 0.00 | 0.00 | 57 | 1014.8 |
| 20260507171317 | 64 | 105 | 2.0 | 8.0 | 0.00 | 0.00 | 0.00 | 57 | 1014.8 |
| 20260507171006 | 64 | 75 | 2.0 | 8.0 | 0.00 | 0.00 | 0.00 | 56 | 1014.9 |
| 20260507170506 | 64 | 36 | 3.0 | 8.0 | 0.00 | 0.00 | 0.00 | 56 | 1014.8 |
| 20260507170317 | 64 | 39 | 3.0 | 9.0 | 0.00 | 0.00 | 0.00 | 56 | 1014.8 |
| 20260507170005 | 65 | 33 | 3.0 | 11.0 | 0.00 | 0.00 | 0.00 | 55 | 1014.8 |
| 20260507165506 | 65 | 41 | 3.0 | 11.0 | 0.00 | 0.00 | 0.00 | 54 | 1014.8 |
| 20260507165317 | 65 | 31 | 3.0 | 11.0 | 0.00 | 0.00 | 0.00 | 54 | 1014.8 |
| 20260507165234 | 65 | 32 | 4.0 | 11.0 | 0.00 | 0.00 | 0.00 | 54 | 1014.8 |
| 20260507164506 | 66 | 27 | 4.0 | 11.0 | 0.00 | 0.00 | 0.00 | 53 | 1014.8 |
| 20260507164320 | 66 | 35 | 4.0 | 11.0 | 0.00 | 0.00 | 0.00 | 52 | 1014.7 |
| 20260507164006 | 66 | 30 | 4.0 | 10.0 | 0.00 | 0.00 | 0.00 | 53 | 1014.7 |
| 20260507163506 | 66 | 21 | 3.0 | 10.0 | 0.00 | 0.00 | 0.00 | 52 | 1014.7 |
| 20260507163312 | 67 | 17 | 3.0 | 7.0 | 0.00 | 0.00 | 0.00 | 52 | 1014.7 |
| 20260507163007 | 67 | 27 | 3.0 | 7.0 | 0.00 | 0.00 | 0.00 | 52 | 1014.8 |
| 20260507162507 | 67 | 51 | 4.0 | 7.0 | 0.00 | 0.00 | 0.00 | 53 | 1014.7 |
| 20260507162313 | 67 | 49 | 3.0 | 7.0 | 0.00 | 0.00 | 0.00 | 52 | 1014.7 |
| 20260507162239 | 67 | 64 | 3.0 | 7.0 | 0.00 | 0.00 | 0.00 | 53 | 1014.7 |
| 20260507161741 | 68 | 137 | 2.0 | 7.0 | 0.00 | 0.00 | 0.00 | 51 | 1014.7 |
| 20260507161313 | 68 | 146 | 2.0 | 7.0 | 0.00 | 0.00 | 0.00 | 52 | 1014.7 |
| 20260507161005 | 68 | 163 | 2.0 | 7.0 | 0.00 | 0.00 | 0.00 | 52 | 1014.7 |
| 20260507160506 | 67 | 103 | 3.0 | 7.0 | 0.00 | 0.00 | 0.00 | 52 | 1014.6 |
| 20260507160312 | 67 | 95 | 3.0 | 12.0 | 0.00 | 0.00 | 0.00 | 53 | 1014.6 |
| 20260507160006 | 67 | 79 | 2.0 | 12.0 | 0.00 | 0.00 | 0.00 | 51 | 1014.6 |
| 20260507155506 | 67 | 17 | 2.0 | 12.0 | 0.00 | 0.00 | 0.00 | 52 | 1014.6 |
| 20260507155313 | 67 | 13 | 2.0 | 12.0 | 0.00 | 0.00 | 0.00 | 52 | 1014.6 |
| 20260507155006 | 67 | 20 | 3.0 | 12.0 | 0.00 | 0.00 | 0.00 | 53 | 1014.5 |
| 20260507154506 | 66 | 44 | 3.0 | 12.0 | 0.00 | 0.00 | 0.00 | 52 | 1014.4 |
| 20260507154312 | 67 | 54 | 3.0 | 9.0 | 0.00 | 0.00 | 0.00 | 51 | 1014.5 |
| 20260507154008 | 67 | 98 | 2.0 | 8.0 | 0.00 | 0.00 | 0.00 | 50 | 1014.4 |
| 20260507153734 | 68 | 124 | 2.0 | 11.0 | 0.00 | 0.00 | 0.00 | 49 | 1014.5 |
| 20260507153310 | 68 | 156 | 2.0 | 11.0 | 0.00 | 0.00 | 0.00 | 50 | 1014.5 |
| 20260507153006 | 68 | 192 | 2.0 | 11.0 | 0.00 | 0.00 | 0.00 | 51 | 1014.5 |
| 20260507152506 | 68 | 165 | 2.0 | 11.0 | 0.00 | 0.00 | 0.00 | 51 | 1014.3 |
| 20260507152311 | 67 | 53 | 2.0 | 11.0 | 0.00 | 0.00 | 0.00 | 51 | 1014.3 |
| 20260507152240 | 68 | 85 | 3.0 | 11.0 | 0.00 | 0.00 | 0.00 | 50 | 1014.4 |
| 20260507151506 | 68 | 341 | 3.0 | 8.0 | 0.00 | 0.00 | 0.00 | 52 | 1014.3 |
| 20260507151310 | 67 | 272 | 3.0 | 8.0 | 0.00 | 0.00 | 0.00 | 51 | 1014.3 |
| 20260507151006 | 68 | 339 | 3.0 | 8.0 | 0.00 | 0.00 | 0.00 | 51 | 1014.4 |
| 20260507150506 | 68 | 88 | 3.0 | 10.0 | 0.00 | 0.00 | 0.00 | 51 | 1014.4 |
| 20260507150311 | 68 | 85 | 3.0 | 10.0 | 0.00 | 0.00 | 0.00 | 51 | 1014.4 |
| 20260507150006 | 68 | 53 | 3.0 | 10.0 | 0.00 | 0.00 | 0.00 | 51 | 1014.4 |
| 20260507145515 | 68 | 26 | 3.0 | 14.0 | 0.00 | 0.00 | 0.00 | 51 | 1014.5 |
| 20260507145510 | 67 | 22 | 3.0 | 10.0 | 0.00 | 0.00 | 0.00 | 51 | 1014.5 |
| 20260507145452 | 67 | 19 | 3.0 | 14.0 | 0.00 | 0.00 | 0.00 | 51 | 1014.5 |
| 20260507144505 | 68 | 31 | 3.0 | 14.0 | 0.00 | 0.00 | 0.00 | 50 | 1014.5 |
| 20260507144311 | 68 | 36 | 4.0 | 14.0 | 0.00 | 0.00 | 0.00 | 51 | 1014.4 |
| 20260507144006 | 68 | 23 | 3.0 | 14.0 | 0.00 | 0.00 | 0.00 | 52 | 1014.1 |
| 20260507143505 | 68 | 131 | 4.0 | 14.0 | 0.00 | 0.00 | 0.00 | 52 | 1014.1 |
| 20260507143311 | 68 | 104 | 3.0 | 11.0 | 0.00 | 0.00 | 0.00 | 52 | 1014.2 |
| 20260507143006 | 67 | 35 | 4.0 | 11.0 | 0.00 | 0.00 | 0.00 | 52 | 1014.4 |
| 20260507142800 | 67 | 13 | 3.0 | 11.0 | 0.00 | 0.00 | 0.00 | 51 | 1014.4 |
| 20260507142737 | 67 | 11 | 3.0 | 11.0 | 0.00 | 0.00 | 0.00 | 51 | 1014.3 |
| 20260507141314 | 68 | 295 | 3.0 | 9.0 | 0.00 | 0.00 | 0.00 | 50 | 1014.3 |
| 20260507141007 | 68 | 266 | 2.0 | 9.0 | 0.00 | 0.00 | 0.00 | 51 | 1014.4 |
| 20260507140509 | 67 | 316 | 3.0 | 11.0 | 0.00 | 0.00 | 0.00 | 52 | 1014.5 |
| 20260507140311 | 67 | 335 | 3.0 | 11.0 | 0.00 | 0.00 | 0.00 | 51 | 1014.5 |
| 20260507140006 | 67 | 349 | 3.0 | 11.0 | 0.00 | 0.00 | 0.00 | 53 | 1014.5 |
| 20260507135505 | 67 | 357 | 3.0 | 11.0 | 0.00 | 0.00 | 0.00 | 52 | 1014.5 |
| 20260507135312 | 67 | 8 | 3.0 | 11.0 | 0.00 | 0.00 | 0.00 | 52 | 1014.5 |
| 20260507135008 | 68 | 5 | 3.0 | 11.0 | 0.00 | 0.00 | 0.00 | 51 | 1014.4 |
| 20260507134508 | 68 | 20 | 2.0 | 11.0 | 0.00 | 0.00 | 0.00 | 52 | 1014.4 |
| 20260507134311 | 68 | 23 | 2.0 | 11.0 | 0.00 | 0.00 | 0.00 | 51 | 1014.4 |
| 20260507134008 | 68 | 49 | 3.0 | 11.0 | 0.00 | 0.00 | 0.00 | 51 | 1014.5 |
| 20260507133507 | 68 | 202 | 3.0 | 9.0 | 0.00 | 0.00 | 0.00 | 53 | 1014.5 |
| 20260507133310 | 68 | 269 | 3.0 | 9.0 | 0.00 | 0.00 | 0.00 | 52 | 1014.5 |
| 20260507133244 | 68 | 268 | 3.0 | 12.0 | 0.00 | 0.00 | 0.00 | 52 | 1014.6 |
| 20260507132507 | 67 | 346 | 3.0 | 14.0 | 0.00 | 0.00 | 0.00 | 51 | 1014.4 |
| 20260507132311 | 67 | 350 | 3.0 | 14.0 | 0.00 | 0.00 | 0.00 | 53 | 1014.4 |
| 20260507132008 | 67 | 326 | 3.0 | 14.0 | 0.00 | 0.00 | 0.00 | 52 | 1014.5 |
| 20260507131505 | 67 | 247 | 4.0 | 14.0 | 0.00 | 0.00 | 0.00 | 52 | 1014.5 |
| 20260507131309 | 67 | 223 | 4.0 | 14.0 | 0.00 | 0.00 | 0.00 | 51 | 1014.7 |
| 20260507131243 | 67 | 351 | 4.0 | 14.0 | 0.00 | 0.00 | 0.00 | 51 | 1014.6 |
| 20260507130506 | 67 | 0 | 2.0 | 8.0 | 0.00 | 0.00 | 0.00 | 52 | 1014.8 |
| 20260507130309 | 68 | 0 | 3.0 | 8.0 | 0.00 | 0.00 | 0.00 | 51 | 1014.7 |
| 20260507130006 | 68 | 357 | 2.0 | 8.0 | 0.00 | 0.00 | 0.00 | 52 | 1014.7 |
| 20260507125506 | 67 | 45 | 2.0 | 11.0 | 0.00 | 0.00 | 0.00 | 52 | 1014.6 |
| 20260507125309 | 68 | 78 | 2.0 | 11.0 | 0.00 | 0.00 | 0.00 | 51 | 1014.8 |
| 20260507125006 | 67 | 90 | 3.0 | 11.0 | 0.00 | 0.00 | 0.00 | 52 | 1014.6 |
| 20260507124506 | 67 | 328 | 3.0 | 11.0 | 0.00 | 0.00 | 0.00 | 53 | 1014.7 |
| 20260507124308 | 67 | 39 | 3.0 | 11.0 | 0.00 | 0.00 | 0.00 | 52 | 1014.7 |
| 20260507124006 | 67 | 28 | 3.0 | 11.0 | 0.00 | 0.00 | 0.00 | 54 | 1014.6 |
| 20260507123504 | 66 | 19 | 3.0 | 11.0 | 0.00 | 0.00 | 0.00 | 54 | 1014.7 |
| 20260507123309 | 66 | 346 | 4.0 | 11.0 | 0.00 | 0.00 | 0.00 | 54 | 1014.7 |
| 20260507123004 | 66 | 304 | 4.0 | 11.0 | 0.00 | 0.00 | 0.00 | 55 | 1014.7 |
| 20260507122503 | 66 | 209 | 3.0 | 14.0 | 0.00 | 0.00 | 0.00 | 54 | 1014.7 |
| 20260507122309 | 66 | 187 | 3.0 | 14.0 | 0.00 | 0.00 | 0.00 | 53 | 1014.9 |
| 20260507122002 | 66 | 189 | 4.0 | 14.0 | 0.00 | 0.00 | 0.00 | 53 | 1014.7 |
| 20260507121502 | 65 | 273 | 5.0 | 14.0 | 0.00 | 0.00 | 0.00 | 54 | 1014.7 |
| 20260507121309 | 65 | 287 | 5.0 | 14.0 | 0.00 | 0.00 | 0.00 | 55 | 1014.8 |
| 20260507121001 | 65 | 215 | 5.0 | 14.0 | 0.00 | 0.00 | 0.00 | 54 | 1014.8 |
| 20260507120501 | 66 | 189 | 5.0 | 11.0 | 0.00 | 0.00 | 0.00 | 54 | 1014.8 |
| 20260507120308 | 66 | 193 | 5.0 | 11.0 | 0.00 | 0.00 | 0.00 | 55 | 1014.8 |
| 20260507115959 | 66 | 197 | 4.0 | 11.0 | 0.00 | 0.00 | 0.00 | 55 | 1014.8 |
| 20260507115500 | 66 | 280 | 3.0 | 11.0 | 0.00 | 0.00 | 0.00 | 54 | 1014.9 |
| 20260507115309 | 66 | 249 | 3.0 | 11.0 | 0.00 | 0.00 | 0.00 | 54 | 1014.9 |
| 20260507114959 | 66 | 20 | 3.0 | 12.0 | 0.00 | 0.00 | 0.00 | 56 | 1014.6 |
| 20260507114457 | 65 | 163 | 3.0 | 12.0 | 0.00 | 0.00 | 0.00 | 54 | 1014.8 |
| 20260507114308 | 65 | 160 | 3.0 | 12.0 | 0.00 | 0.00 | 0.00 | 54 | 1014.7 |
| 20260507113957 | 65 | 157 | 3.0 | 12.0 | 0.00 | 0.00 | 0.00 | 55 | 1014.4 |
| 20260507113458 | 65 | 114 | 3.0 | 12.0 | 0.00 | 0.00 | 0.00 | 54 | 1014.4 |
| 20260507113306 | 65 | 41 | 3.0 | 12.0 | 0.00 | 0.00 | 0.00 | 54 | 1014.4 |
| 20260507113225 | 65 | 127 | 3.0 | 12.0 | 0.00 | 0.00 | 0.00 | 54 | 1014.4 |
| 20260507112455 | 65 | 288 | 4.0 | 12.0 | 0.00 | 0.00 | 0.00 | 54 | 1014.6 |
| 20260507112307 | 65 | 209 | 4.0 | 12.0 | 0.00 | 0.00 | 0.00 | 55 | 1014.7 |
| 20260507111958 | 64 | 282 | 5.0 | 12.0 | 0.00 | 0.00 | 0.00 | 56 | 1014.8 |
| 20260507111456 | 64 | 345 | 5.0 | 12.0 | 0.00 | 0.00 | 0.00 | 53 | 1014.8 |
| 20260507111305 | 64 | 343 | 4.0 | 12.0 | 0.00 | 0.00 | 0.00 | 55 | 1014.8 |
| 20260507110955 | 65 | 342 | 4.0 | 12.0 | 0.00 | 0.00 | 0.00 | 56 | 1014.7 |
| 20260507110456 | 64 | 242 | 4.0 | 12.0 | 0.00 | 0.00 | 0.00 | 55 | 1014.7 |
| 20260507110305 | 64 | 271 | 5.0 | 12.0 | 0.00 | 0.00 | 0.00 | 54 | 1014.8 |
| 20260507105956 | 64 | 304 | 4.0 | 12.0 | 0.00 | 0.00 | 0.00 | 54 | 1014.8 |
| 20260507105456 | 64 | 349 | 3.0 | 11.0 | 0.00 | 0.00 | 0.00 | 52 | 1014.8 |
| 20260507105306 | 65 | 335 | 3.0 | 10.0 | 0.00 | 0.00 | 0.00 | 51 | 1014.7 |
| 20260507104956 | 65 | 34 | 2.0 | 6.0 | 0.00 | 0.00 | 0.00 | 53 | 1014.8 |
| 20260507104455 | 65 | 224 | 2.0 | 9.0 | 0.00 | 0.00 | 0.00 | 53 | 1014.8 |
| 20260507104305 | 65 | 227 | 2.0 | 9.0 | 0.00 | 0.00 | 0.00 | 54 | 1014.8 |
| 20260507103956 | 65 | 220 | 2.0 | 9.0 | 0.00 | 0.00 | 0.00 | 53 | 1014.9 |
| 20260507103456 | 65 | 207 | 3.0 | 9.0 | 0.00 | 0.00 | 0.00 | 54 | 1014.7 |
| 20260507103305 | 64 | 194 | 3.0 | 9.0 | 0.00 | 0.00 | 0.00 | 54 | 1014.8 |
| 20260507102957 | 64 | 190 | 3.0 | 9.0 | 0.00 | 0.00 | 0.00 | 54 | 1014.8 |
| 20260507102732 | 63 | 223 | 4.0 | 9.0 | 0.00 | 0.00 | 0.00 | 54 | 1014.8 |
| 20260507102307 | 63 | 221 | 4.0 | 9.0 | 0.00 | 0.00 | 0.00 | 53 | 1014.9 |
| 20260507101956 | 63 | 243 | 3.0 | 10.0 | 0.00 | 0.00 | 0.00 | 54 | 1014.7 |
| 20260507101455 | 63 | 234 | 3.0 | 15.0 | 0.00 | 0.00 | 0.00 | 54 | 1014.9 |
| 20260507101305 | 63 | 275 | 3.0 | 15.0 | 0.00 | 0.00 | 0.00 | 55 | 1014.8 |
| 20260507100957 | 63 | 241 | 3.0 | 15.0 | 0.00 | 0.00 | 0.00 | 54 | 1014.8 |
| 20260507100456 | 62 | 192 | 4.0 | 15.0 | 0.00 | 0.00 | 0.00 | 56 | 1014.8 |
| 20260507100305 | 62 | 189 | 4.0 | 15.0 | 0.00 | 0.00 | 0.00 | 56 | 1014.8 |
| 20260507095955 | 62 | 184 | 4.0 | 15.0 | 0.00 | 0.00 | 0.00 | 55 | 1014.9 |
| 20260507095455 | 61 | 183 | 4.0 | 13.0 | 0.00 | 0.00 | 0.00 | 55 | 1014.8 |
| 20260507095306 | 62 | 193 | 4.0 | 13.0 | 0.00 | 0.00 | 0.00 | 53 | 1014.9 |
| 20260507094955 | 62 | 205 | 4.0 | 13.0 | 0.00 | 0.00 | 0.00 | 55 | 1014.8 |
| 20260507094456 | 61 | 214 | 3.0 | 9.0 | 0.00 | 0.00 | 0.00 | 57 | 1014.7 |
| 20260507094303 | 61 | 159 | 3.0 | 9.0 | 0.00 | 0.00 | 0.00 | 57 | 1014.7 |
| 20260507093956 | 60 | 127 | 4.0 | 8.0 | 0.00 | 0.00 | 0.00 | 57 | 1014.7 |
| 20260507093732 | 60 | 76 | 4.0 | 8.0 | 0.00 | 0.00 | 0.00 | 56 | 1014.8 |
| 20260507093303 | 60 | 83 | 4.0 | 11.0 | 0.00 | 0.00 | 0.00 | 53 | 1014.8 |